KMBS/MBS METAR and TAF weather

Enter ICAO airport designator
Station Type Date Time Source
KMBS METAR 2024/04/17 17:53 UTC NOAA

KMBS 171753Z 14015KT 10SM FEW023 BKN038 BKN048 21/14 A2961 RMK AO2 LTG DSNT W SLP025 60000 T02060139 10211 20089 58030


Station Type Date Time Source
KMBS Decoded METAR 2024/04/17 17:53 UTC NOAA

MBS INTERNATIONAL AIRPORT, MI, United States (KMBS) 43-32N 084-05W 202M
Apr 17, 2024 - 01:53 PM EDT / 2024.04.17 1753 UTC
Wind: from the SE (140 degrees) at 17 MPH (15 KT):0
Visibility: 10 mile(s):0
Sky conditions: mostly cloudy
Weather: Lightning observed
Temperature: 69.1 F (20.6 C)
Dew Point: 57.0 F (13.9 C)
Relative Humidity: 65%
Pressure (altimeter): 29.61 in. Hg (1002 hPa)
Pressure tendency: 0.09 inches (3.0 hPa) lower than three hours ago
ob: KMBS 171753Z 14015KT 10SM FEW023 BKN038 BKN048 21/14 A2961 RMK AO2 LTG DSNT W SLP025 60000 T02060139 10211 20089 58030
cycle: 18

Station Type Date Time Source
KMBS TAF 2024/04/17 18:28 UTC NOAA